Time;durP1;ratioP1;P1;durP2;ratioP2;P2;SDS_P1;SDS_P2;PMS_P1;PMS_P2;Temp;Humidity;BMP_temperature;BMP_pressure;BME280_temperature;BME280_humidity;BME280_pressure;Samples;Min_cycle;Max_cycle;Signal;HPM_P1;HPM_P2
2021/08/18 00:00:46;;;;;;;0.17;0.17;;;15.70;99.90;;;;;;5070060;28;20149;-73
2021/08/18 00:03:16;;;;;;;0.15;0.15;;;15.80;99.90;;;;;;5065611;28;20197;-73
2021/08/18 00:05:43;;;;;;;0.10;0.10;;;15.90;99.90;;;;;;5049215;28;20165;-73
2021/08/18 00:08:10;;;;;;;1.17;1.08;;;16.00;99.90;;;;;;5049705;28;20195;-73
2021/08/18 00:10:38;;;;;;;0.60;0.30;;;16.00;99.90;;;;;;5048494;28;20195;-73
2021/08/18 00:13:10;;;;;;;5.82;0.40;;;15.60;99.90;;;;;;5049692;28;20235;-72
2021/08/18 00:15:38;;;;;;;0.75;0.65;;;15.40;99.90;;;;;;5048318;28;20180;-73
2021/08/18 00:18:05;;;;;;;0.20;0.20;;;15.30;99.90;;;;;;5048252;28;20183;-72
2021/08/18 00:20:32;;;;;;;0.63;0.63;;;15.30;99.90;;;;;;5049423;28;20165;-72
2021/08/18 00:22:58;;;;;;;1.67;0.95;;;15.30;99.90;;;;;;5050202;28;20209;-73
2021/08/18 00:25:26;;;;;;;0.93;0.52;;;15.50;99.90;;;;;;5049472;28;20200;-73
2021/08/18 00:27:53;;;;;;;0.30;0.30;;;15.30;99.90;;;;;;5049414;28;20150;-73
2021/08/18 00:30:19;;;;;;;0.35;0.35;;;15.30;99.90;;;;;;5049383;28;20160;-73
2021/08/18 00:32:45;;;;;;;4.75;1.38;;;15.10;99.90;;;;;;5047948;28;20288;-74
2021/08/18 00:35:11;;;;;;;0.15;0.15;;;15.10;99.90;;;;;;5047925;28;20217;-74
2021/08/18 00:37:37;;;;;;;0.47;0.47;;;15.30;99.90;;;;;;5049205;28;20219;-73
2021/08/18 00:40:04;;;;;;;0.28;0.13;;;15.20;99.90;;;;;;5049290;28;20157;-74
2021/08/18 00:42:30;;;;;;;0.35;0.35;;;15.20;99.90;;;;;;5047701;28;20205;-74
2021/08/18 00:44:57;;;;;;;0.10;0.10;;;15.30;99.90;;;;;;5048181;28;20169;-73
2021/08/18 00:47:22;;;;;;;0.28;0.28;;;15.50;99.90;;;;;;5047930;28;20180;-73
2021/08/18 00:49:48;;;;;;;0.15;0.15;;;15.50;99.90;;;;;;5047405;28;20228;-74
2021/08/18 00:52:14;;;;;;;0.65;0.65;;;15.60;99.90;;;;;;5048876;28;20197;-74
2021/08/18 00:54:41;;;;;;;0.13;0.13;;;15.70;99.90;;;;;;5048959;28;20192;-74
2021/08/18 00:57:08;;;;;;;0.45;0.43;;;15.70;99.90;;;;;;5048873;28;20166;-74
2021/08/18 00:59:35;;;;;;;0.77;0.77;;;15.70;99.90;;;;;;5047487;28;20169;-74
2021/08/18 01:02:03;;;;;;;0.10;0.10;;;15.70;99.90;;;;;;5048543;28;20188;-74
2021/08/18 01:04:29;;;;;;;0.55;0.55;;;15.80;99.90;;;;;;5048666;28;20234;-74
2021/08/18 01:06:55;;;;;;;1.27;0.70;;;15.90;99.90;;;;;;5048634;28;20168;-74
2021/08/18 01:09:21;;;;;;;0.43;0.43;;;15.80;99.90;;;;;;5047771;28;20162;-75
2021/08/18 01:11:50;;;;;;;0.52;0.52;;;15.80;99.90;;;;;;5049132;28;20599;-74
2021/08/18 01:14:18;;;;;;;0.28;0.20;;;15.90;99.90;;;;;;5048638;28;20157;-74
2021/08/18 01:16:47;;;;;;;0.00;0.00;;;15.70;99.90;;;;;;5048572;28;20531;-74
2021/08/18 01:19:16;;;;;;;0.00;0.00;;;15.50;99.90;;;;;;5048673;28;20161;-73
2021/08/18 01:21:43;;;;;;;0.20;0.20;;;15.20;99.90;;;;;;5047016;28;20204;-73
2021/08/18 01:24:11;;;;;;;0.10;0.10;;;15.00;99.90;;;;;;5048402;28;20257;-75
2021/08/18 01:26:38;;;;;;;0.30;0.30;;;15.10;99.90;;;;;;5047034;28;20161;-74
2021/08/18 01:29:05;;;;;;;0.50;0.50;;;15.10;99.90;;;;;;5047000;28;20224;-74
2021/08/18 01:31:31;;;;;;;0.43;0.43;;;15.30;99.90;;;;;;5048329;28;20158;-74
2021/08/18 01:34:00;;;;;;;0.10;0.10;;;15.30;99.90;;;;;;5048304;28;20200;-73
2021/08/18 01:36:26;;;;;;;0.20;0.20;;;15.40;99.90;;;;;;5048424;28;20162;-74
2021/08/18 01:38:52;;;;;;;0.45;0.45;;;15.50;99.90;;;;;;5047023;28;20215;-74
2021/08/18 01:41:18;;;;;;;0.10;0.10;;;15.60;99.90;;;;;;5048306;28;20203;-74
2021/08/18 01:43:44;;;;;;;0.03;0.03;;;15.70;99.90;;;;;;5048290;28;20197;-75
2021/08/18 01:46:10;;;;;;;0.25;0.25;;;15.70;99.90;;;;;;5048282;28;20176;-75
2021/08/18 01:48:37;;;;;;;0.80;0.80;;;15.60;99.90;;;;;;5047769;28;20328;-75
2021/08/18 01:51:05;;;;;;;0.20;0.20;;;15.60;99.90;;;;;;5046736;28;20185;-75
2021/08/18 01:53:40;;;;;;;0.15;0.15;;;15.70;99.90;;;;;;5048161;28;20189;-75
2021/08/18 01:56:07;;;;;;;0.20;0.20;;;15.80;99.90;;;;;;5046768;28;20184;-74
2021/08/18 01:58:34;;;;;;;0.40;0.40;;;15.80;99.90;;;;;;5048000;28;20165;-75
2021/08/18 02:01:04;;;;;;;0.30;0.30;;;15.90;99.90;;;;;;5046531;28;20162;-75
2021/08/18 02:03:30;;;;;;;0.28;0.28;;;15.90;99.90;;;;;;5048014;28;20225;-75
2021/08/18 02:05:56;;;;;;;0.10;0.10;;;15.90;99.90;;;;;;5048107;28;20162;-74
2021/08/18 02:08:22;;;;;;;0.47;0.47;;;15.90;99.90;;;;;;5058669;28;20256;-75
2021/08/18 02:10:48;;;;;;;0.40;0.40;;;15.90;99.90;;;;;;5068029;28;20165;-75
2021/08/18 02:13:15;;;;;;;1.08;0.50;;;15.90;99.90;;;;;;5067873;28;20276;-74
2021/08/18 02:15:41;;;;;;;0.43;0.43;;;15.70;99.90;;;;;;5067670;28;20157;-74
2021/08/18 02:18:09;;;;;;;0.70;0.70;;;15.70;99.90;;;;;;5067891;28;20161;-74
2021/08/18 02:20:37;;;;;;;0.10;0.10;;;15.70;99.90;;;;;;5067955;28;20153;-74
2021/08/18 02:23:04;;;;;;;0.20;0.20;;;15.70;99.90;;;;;;5066327;28;20214;-75
2021/08/18 02:25:30;;;;;;;0.10;0.10;;;15.30;99.90;;;;;;5066473;28;20236;-74
2021/08/18 02:27:56;;;;;;;0.20;0.20;;;15.20;99.90;;;;;;5067739;28;20161;-75
2021/08/18 02:30:24;;;;;;;0.22;0.22;;;15.00;99.90;;;;;;5068831;28;20188;-75
2021/08/18 02:32:52;;;;;;;0.35;0.35;;;15.00;99.90;;;;;;5070286;28;20200;-75
2021/08/18 02:35:18;;;;;;;4.25;0.45;;;15.10;99.90;;;;;;5065440;28;20202;-74
2021/08/18 02:37:47;;;;;;;0.10;0.10;;;15.10;99.90;;;;;;5050185;28;20177;-74
2021/08/18 02:40:18;;;;;;;0.30;0.30;;;15.20;99.90;;;;;;5051700;28;20173;-74
2021/08/18 02:42:45;;;;;;;0.30;0.30;;;15.30;99.90;;;;;;5051604;28;20231;-74
2021/08/18 02:45:11;;;;;;;0.57;0.57;;;15.40;99.90;;;;;;5050040;28;20526;-73
2021/08/18 02:47:37;;;;;;;0.43;0.30;;;15.40;99.90;;;;;;5050097;28;20169;-75
2021/08/18 02:50:06;;;;;;;0.73;0.55;;;15.10;99.90;;;;;;5051279;28;20206;-74
2021/08/18 02:52:32;;;;;;;0.28;0.28;;;14.90;99.90;;;;;;5051141;28;20189;-73
2021/08/18 02:54:58;;;;;;;0.20;0.20;;;15.00;99.90;;;;;;5051151;28;20153;-72
2021/08/18 02:57:24;;;;;;;0.10;0.10;;;15.20;99.90;;;;;;5049843;28;20177;-74
2021/08/18 02:59:52;;;;;;;0.30;0.30;;;15.40;99.90;;;;;;5050883;28;20279;-75
2021/08/18 03:02:19;;;;;;;0.55;0.30;;;15.30;99.90;;;;;;5050945;28;20239;-73
2021/08/18 03:04:45;;;;;;;0.20;0.20;;;15.10;99.90;;;;;;5049629;28;20169;-73
2021/08/18 03:07:11;;;;;;;1.00;0.52;;;15.30;99.90;;;;;;5049496;28;20189;-73
2021/08/18 03:09:37;;;;;;;0.68;0.52;;;15.40;99.90;;;;;;5050941;28;20179;-72
2021/08/18 03:12:03;;;;;;;0.05;0.05;;;15.40;99.90;;;;;;5050551;28;20236;-72
2021/08/18 03:14:29;;;;;;;0.57;0.30;;;15.50;99.90;;;;;;5065284;28;20207;-75
2021/08/18 03:16:55;;;;;;;0.43;0.43;;;15.50;99.90;;;;;;5070766;28;20173;-74
2021/08/18 03:19:21;;;;;;;0.20;0.20;;;15.50;99.90;;;;;;5070570;28;20215;-75
2021/08/18 03:21:47;;;;;;;3.03;1.05;;;15.20;99.90;;;;;;5070627;28;20192;-75
2021/08/18 03:24:13;;;;;;;0.38;0.38;;;14.80;99.90;;;;;;5070579;28;20197;-75
2021/08/18 03:26:39;;;;;;;0.10;0.10;;;14.60;99.90;;;;;;5070150;28;20161;-76
2021/08/18 03:29:05;;;;;;;0.20;0.20;;;14.60;99.90;;;;;;5072039;28;20169;-75
2021/08/18 03:31:31;;;;;;;0.60;0.57;;;14.60;99.90;;;;;;5071436;28;20703;-76
2021/08/18 03:33:57;;;;;;;0.10;0.10;;;14.60;99.90;;;;;;5070867;28;20307;-75
2021/08/18 03:36:23;;;;;;;0.30;0.30;;;14.60;99.90;;;;;;5070440;28;20164;-76
2021/08/18 03:38:49;;;;;;;0.20;0.20;;;14.80;99.90;;;;;;5070415;28;20175;-75
2021/08/18 03:41:16;;;;;;;0.82;0.82;;;14.80;99.90;;;;;;5067709;28;20193;-76
2021/08/18 03:43:42;;;;;;;0.75;0.65;;;14.80;99.90;;;;;;5070226;28;20191;-76
2021/08/18 03:46:09;;;;;;;0.40;0.30;;;14.80;99.90;;;;;;5068906;28;20165;-74
2021/08/18 03:48:35;;;;;;;1.55;0.57;;;15.00;99.90;;;;;;5069954;28;20220;-76
2021/08/18 03:51:00;;;;;;;3.50;1.27;;;15.20;99.90;;;;;;5070137;28;20175;-75
2021/08/18 03:53:26;;;;;;;0.43;0.43;;;15.20;99.90;;;;;;5068543;28;20552;-75
2021/08/18 03:55:52;;;;;;;1.85;1.33;;;15.20;99.90;;;;;;5070143;28;20165;-76
2021/08/18 03:58:18;;;;;;;0.20;0.20;;;15.20;99.90;;;;;;5068763;28;20165;-76
2021/08/18 04:00:44;;;;;;;0.50;0.50;;;15.00;99.90;;;;;;5069907;28;20153;-74
2021/08/18 04:03:10;;;;;;;0.38;0.38;;;15.10;99.90;;;;;;5069652;28;20238;-75
2021/08/18 04:05:36;;;;;;;0.38;0.38;;;15.00;99.90;;;;;;5069982;28;20222;-75
2021/08/18 04:08:06;;;;;;;0.20;0.20;;;14.90;99.90;;;;;;5069836;28;20165;-75
2021/08/18 04:10:33;;;;;;;1.00;0.68;;;14.80;99.90;;;;;;5069783;28;20234;-74
2021/08/18 04:13:00;;;;;;;0.30;0.30;;;14.70;99.90;;;;;;5069710;28;20192;-76
2021/08/18 04:15:35;;;;;;;0.30;0.30;;;14.60;99.90;;;;;;5069717;28;20161;-75
2021/08/18 04:18:00;;;;;;;2.83;1.27;;;14.60;99.90;;;;;;5069562;28;20160;-77
2021/08/18 04:20:26;;;;;;;0.85;0.85;;;14.60;99.90;;;;;;5068306;28;20175;-75
2021/08/18 04:22:53;;;;;;;0.10;0.10;;;14.60;99.90;;;;;;5069432;28;20216;-75
2021/08/18 04:25:21;;;;;;;1.05;1.05;;;14.60;99.90;;;;;;5069534;28;20219;-75
2021/08/18 04:27:48;;;;;;;0.57;0.57;;;14.60;99.90;;;;;;5069412;28;20168;-75
2021/08/18 04:30:15;;;;;;;2.72;1.55;;;14.60;99.90;;;;;;5069442;28;20160;-75
2021/08/18 04:32:41;;;;;;;0.00;0.00;;;14.60;99.90;;;;;;5069249;28;20160;-75
2021/08/18 04:35:09;;;;;;;0.30;0.30;;;14.60;99.90;;;;;;5067751;28;20175;-74
2021/08/18 04:37:36;;;;;;;1.45;0.70;;;14.60;99.90;;;;;;5069218;28;20183;-75
2021/08/18 04:40:04;;;;;;;1.77;0.57;;;14.60;99.90;;;;;;5069237;28;20173;-74
2021/08/18 04:42:38;;;;;;;0.10;0.10;;;14.60;99.90;;;;;;5067509;28;20196;-75
2021/08/18 04:45:07;;;;;;;1.05;1.05;;;14.60;99.90;;;;;;5067714;28;20346;-75
2021/08/18 04:47:33;;;;;;;1.08;1.02;;;14.70;99.90;;;;;;5068959;28;20172;-75
2021/08/18 04:50:00;;;;;;;0.10;0.10;;;14.90;99.90;;;;;;5068967;28;20230;-76
2021/08/18 04:52:26;;;;;;;0.63;0.52;;;14.90;99.90;;;;;;5067266;28;20169;-76
2021/08/18 04:54:53;;;;;;;2.63;1.50;;;14.80;99.90;;;;;;5068763;28;20197;-76
2021/08/18 04:57:19;;;;;;;0.73;0.45;;;14.70;99.90;;;;;;5067603;28;20180;-76
2021/08/18 04:59:45;;;;;;;0.10;0.10;;;14.70;99.90;;;;;;5067537;28;20204;-75
2021/08/18 05:02:11;;;;;;;1.05;1.05;;;14.80;99.90;;;;;;5067043;28;20196;-76
2021/08/18 05:04:37;;;;;;;0.10;0.10;;;14.80;99.90;;;;;;5067432;28;20200;-76
2021/08/18 05:07:03;;;;;;;1.65;1.38;;;14.90;99.90;;;;;;5068611;28;20160;-78
2021/08/18 05:09:29;;;;;;;0.65;0.65;;;14.90;99.90;;;;;;5068576;28;20161;-75
2021/08/18 05:11:56;;;;;;;0.20;0.20;;;14.90;99.90;;;;;;5068535;28;20167;-76
2021/08/18 05:14:22;;;;;;;1.65;0.57;;;14.90;99.90;;;;;;5068497;28;20206;-74
2021/08/18 05:16:49;;;;;;;0.22;0.22;;;14.90;99.90;;;;;;5068507;28;20329;-76
2021/08/18 05:19:15;;;;;;;0.75;0.63;;;14.90;99.90;;;;;;5067072;28;20169;-76
2021/08/18 05:21:41;;;;;;;0.10;0.10;;;15.00;99.90;;;;;;5068498;28;20185;-76
2021/08/18 05:24:07;;;;;;;0.10;0.10;;;15.00;99.90;;;;;;5068465;28;20214;-76
2021/08/18 05:26:34;;;;;;;1.27;1.27;;;15.00;99.90;;;;;;5068377;28;20157;-75
2021/08/18 05:29:00;;;;;;;0.90;0.57;;;15.10;99.90;;;;;;5067139;28;20165;-74
2021/08/18 05:31:26;;;;;;;0.20;0.20;;;15.10;99.90;;;;;;5068398;28;20188;-75
2021/08/18 05:33:55;;;;;;;1.08;1.08;;;15.20;99.90;;;;;;5068324;28;20196;-75
2021/08/18 05:36:22;;;;;;;21.40;0.73;;;15.20;99.90;;;;;;5068478;28;20172;-76
2021/08/18 05:38:48;;;;;;;0.40;0.40;;;15.20;99.90;;;;;;5068534;28;20156;-75
2021/08/18 05:41:15;;;;;;;0.85;0.85;;;15.20;99.90;;;;;;5067042;28;20203;-75
2021/08/18 05:43:40;;;;;;;0.55;0.55;;;15.10;99.90;;;;;;5066799;28;20188;-76
2021/08/18 05:46:06;;;;;;;0.13;0.13;;;15.10;99.90;;;;;;5066957;28;20175;-76
2021/08/18 05:48:32;;;;;;;0.40;0.40;;;15.10;99.90;;;;;;5068087;28;20246;-75
2021/08/18 05:50:58;;;;;;;0.80;0.80;;;15.10;99.90;;;;;;5067073;28;20179;-76
2021/08/18 05:53:24;;;;;;;0.20;0.20;;;15.00;99.90;;;;;;5068648;28;20210;-75
2021/08/18 05:55:51;;;;;;;0.30;0.30;;;15.10;99.90;;;;;;5070005;28;20161;-76
2021/08/18 05:58:17;;;;;;;0.80;0.55;;;15.00;99.90;;;;;;5068940;28;20153;-75
2021/08/18 06:00:44;;;;;;;0.45;0.45;;;15.00;99.90;;;;;;5068334;28;20186;-74
2021/08/18 06:03:10;;;;;;;0.17;0.17;;;14.80;99.90;;;;;;5067956;28;20212;-74
2021/08/18 06:05:36;;;;;;;0.40;0.40;;;14.80;99.90;;;;;;5071078;28;20164;-75
2021/08/18 06:08:03;;;;;;;0.20;0.20;;;14.90;99.90;;;;;;5072112;28;20158;-74
2021/08/18 06:10:29;;;;;;;0.40;0.40;;;14.90;99.90;;;;;;5070612;28;20188;-74
2021/08/18 06:12:56;;;;;;;0.20;0.20;;;15.00;99.90;;;;;;5071958;28;20157;-75
2021/08/18 06:15:22;;;;;;;3.22;0.45;;;15.10;99.90;;;;;;5070745;28;20172;-76
2021/08/18 06:17:47;;;;;;;0.65;0.55;;;15.20;99.90;;;;;;5072107;28;20390;-76
2021/08/18 06:20:18;;;;;;;0.45;0.45;;;15.30;99.90;;;;;;5071781;28;20176;-76
2021/08/18 06:22:46;;;;;;;0.57;0.57;;;15.40;99.90;;;;;;5070307;28;20193;-75
2021/08/18 06:25:12;;;;;;;0.20;0.20;;;15.80;99.90;;;;;;5071489;28;20184;-75
2021/08/18 06:27:38;;;;;;;1.85;0.60;;;16.10;99.90;;;;;;5071866;28;20153;-75
2021/08/18 06:30:05;;;;;;;2.83;1.63;;;15.90;99.90;;;;;;5070317;28;20161;-75
2021/08/18 06:32:31;;;;;;;0.10;0.10;;;15.60;99.90;;;;;;5068236;28;20168;-76
2021/08/18 06:34:57;;;;;;;0.98;0.98;;;15.60;99.90;;;;;;5071310;28;20196;-74
2021/08/18 06:37:23;;;;;;;1.17;1.08;;;15.40;99.90;;;;;;5071463;28;20240;-75
2021/08/18 06:39:49;;;;;;;0.25;0.25;;;15.30;99.90;;;;;;5071266;28;20191;-76
2021/08/18 06:42:15;;;;;;;0.13;0.13;;;15.50;99.90;;;;;;5071158;28;20553;-76
2021/08/18 06:44:42;;;;;;;0.52;0.52;;;15.60;99.90;;;;;;5070555;28;20199;-78
2021/08/18 06:47:09;;;;;;;0.22;0.22;;;15.80;99.90;;;;;;5070955;28;20164;-78
2021/08/18 06:49:35;;;;;;;0.73;0.50;;;16.10;99.90;;;;;;5071280;28;20279;-77
2021/08/18 06:52:02;;;;;;;0.28;0.28;;;16.10;99.90;;;;;;5068020;28;20191;-77
2021/08/18 06:54:28;;;;;;;0.20;0.20;;;15.90;99.90;;;;;;5051132;28;20193;-77
2021/08/18 06:56:54;;;;;;;0.10;0.10;;;16.00;99.90;;;;;;5051316;28;20229;-77
2021/08/18 06:59:20;;;;;;;0.20;0.20;;;16.10;99.90;;;;;;5049971;28;20188;-77
2021/08/18 07:01:46;;;;;;;0.82;0.43;;;16.50;99.90;;;;;;5049763;28;20642;-78
2021/08/18 07:04:13;;;;;;;10.13;1.35;;;16.40;99.90;;;;;;5051223;28;20185;-77
2021/08/18 07:06:39;;;;;;;1.20;1.13;;;16.70;99.90;;;;;;5049826;28;20741;-79
2021/08/18 07:09:05;;;;;;;1.63;0.88;;;17.40;99.90;;;;;;5049575;28;20170;-79
2021/08/18 07:11:31;;;;;;;0.80;0.57;;;17.40;99.90;;;;;;5049713;28;20626;-78
2021/08/18 07:14:06;;;;;;;1.20;0.63;;;17.80;99.90;;;;;;5050870;28;20195;-79
2021/08/18 07:16:34;;;;;;;0.55;0.55;;;18.20;99.90;;;;;;5050660;28;20164;-79
2021/08/18 07:19:01;;;;;;;0.75;0.38;;;18.50;99.90;;;;;;5049682;28;20173;-79
2021/08/18 07:21:27;;;;;;;0.00;0.00;;;18.70;99.90;;;;;;5050951;28;20189;-79
2021/08/18 07:23:55;;;;;;;1.80;0.75;;;18.60;99.90;;;;;;5050711;28;20562;-79
2021/08/18 07:26:24;;;;;;;7.03;0.75;;;18.40;99.90;;;;;;5049346;28;20215;-79
2021/08/18 07:28:51;;;;;;;1.38;0.85;;;18.50;99.90;;;;;;5049417;28;20303;-79
2021/08/18 07:31:17;;;;;;;0.20;0.20;;;18.10;99.90;;;;;;5049609;28;20542;-76
2021/08/18 07:33:43;;;;;;;1.50;0.57;;;18.20;99.90;;;;;;5050597;28;20185;-76
2021/08/18 07:36:09;;;;;;;0.13;0.13;;;18.40;99.90;;;;;;5050602;28;20291;-76
2021/08/18 07:38:35;;;;;;;0.93;0.77;;;18.90;99.90;;;;;;5050295;28;20169;-77
2021/08/18 07:41:01;;;;;;;0.35;0.35;;;19.10;99.90;;;;;;5047355;28;20182;-77
2021/08/18 07:43:27;;;;;;;0.45;0.45;;;19.20;99.90;;;;;;5047933;28;20685;-76
2021/08/18 07:45:53;;;;;;;0.57;0.57;;;20.50;99.90;;;;;;5050303;28;20154;-76
2021/08/18 07:48:19;;;;;;;0.57;0.40;;;21.40;99.90;;;;;;5050137;28;20216;-77
2021/08/18 07:50:45;;;;;;;2.47;1.40;;;21.70;99.90;;;;;;5048681;28;20176;-77
2021/08/18 07:53:11;;;;;;;1.02;0.80;;;22.90;99.90;;;;;;5048970;28;20199;-76
2021/08/18 07:55:37;;;;;;;2.22;0.70;;;23.60;99.90;;;;;;5049967;28;20153;-75
2021/08/18 07:58:03;;;;;;;0.77;0.60;;;23.50;99.90;;;;;;5049687;28;20216;-74
2021/08/18 08:00:31;;;;;;;0.38;0.38;;;22.40;99.90;;;;;;5048199;28;20188;-75
2021/08/18 08:02:57;;;;;;;0.82;0.57;;;21.70;99.90;;;;;;5049241;28;20204;-75
2021/08/18 08:05:23;;;;;;;0.80;0.32;;;21.70;99.90;;;;;;5048379;28;20171;-75
2021/08/18 08:07:49;;;;;;;0.68;0.43;;;21.70;99.90;;;;;;5049793;28;20157;-74
2021/08/18 08:10:15;;;;;;;0.20;0.20;;;22.00;99.90;;;;;;5048420;28;20165;-75
2021/08/18 08:12:42;;;;;;;1.83;0.57;;;22.10;99.90;;;;;;5049620;28;20279;-75
2021/08/18 08:15:10;;;;;;;0.28;0.28;;;22.70;99.90;;;;;;5049695;28;20161;-75
2021/08/18 08:17:35;;;;;;;0.63;0.60;;;22.30;99.90;;;;;;5049293;28;20172;-75
2021/08/18 08:20:03;;;;;;;0.68;0.63;;;20.30;99.90;;;;;;5051891;28;20161;-75
2021/08/18 08:22:29;;;;;;;2.72;0.98;;;20.90;99.90;;;;;;5051644;28;20277;-75
2021/08/18 08:24:55;;;;;;;0.60;0.55;;;21.20;99.90;;;;;;5049270;28;20173;-75
2021/08/18 08:27:21;;;;;;;1.10;0.70;;;22.20;99.90;;;;;;5048600;28;20180;-75
2021/08/18 08:29:46;;;;;;;0.60;0.43;;;23.10;99.90;;;;;;5047966;28;20169;-76
2021/08/18 08:32:13;;;;;;;0.10;0.10;;;23.70;99.90;;;;;;5049279;28;20164;-76
2021/08/18 08:34:39;;;;;;;0.35;0.35;;;23.70;99.90;;;;;;5048058;28;20645;-75
2021/08/18 08:37:05;;;;;;;0.30;0.30;;;23.10;99.90;;;;;;5049225;28;20228;-75
2021/08/18 08:39:32;;;;;;;1.65;0.55;;;22.80;99.90;;;;;;5049230;28;20161;-75
2021/08/18 08:42:00;;;;;;;0.40;0.40;;;22.90;99.90;;;;;;5047813;28;20196;-75
2021/08/18 08:44:26;;;;;;;1.25;0.40;;;23.80;99.90;;;;;;5047553;28;20192;-75
2021/08/18 08:46:53;;;;;;;0.38;0.32;;;22.20;99.90;;;;;;5049162;28;20203;-75
2021/08/18 08:49:21;;;;;;;3.25;1.02;;;21.80;99.90;;;;;;5048904;28;20228;-76
2021/08/18 08:51:50;;;;;;;0.43;0.43;;;23.30;99.90;;;;;;5049076;28;20176;-76
2021/08/18 08:54:17;;;;;;;0.80;0.80;;;23.40;99.90;;;;;;5047627;28;20200;-76
2021/08/18 08:56:44;;;;;;;0.40;0.32;;;24.30;99.90;;;;;;5048767;28;20157;-75
2021/08/18 08:59:10;;;;;;;0.57;0.57;;;24.70;99.90;;;;;;5048898;28;20169;-75
2021/08/18 09:02:06;;;;;;;0.20;0.20;;;25.00;99.90;;;;;;5047364;28;20199;-75
2021/08/18 09:04:39;;;;;;;0.00;0.00;;;24.40;99.90;;;;;;5043806;28;20208;-76
2021/08/18 09:07:23;;;;;;;2.47;1.13;;;24.80;99.90;;;;;;5046852;28;20210;-75
2021/08/18 09:09:58;;;;;;;0.30;0.30;;;24.00;99.90;;;;;;5046632;28;20165;-76
2021/08/18 09:12:34;;;;;;;0.65;0.65;;;24.20;99.90;;;;;;5047786;28;20246;-75
2021/08/18 09:15:20;;;;;;;1.70;1.02;;;23.00;99.90;;;;;;5046856;28;20194;-74
2021/08/18 09:17:49;;;;;;;0.13;0.13;;;22.40;99.90;;;;;;5048438;28;20157;-76
2021/08/18 09:20:20;;;;;;;1.83;0.80;;;23.30;99.90;;;;;;5048265;28;20259;-75
2021/08/18 09:22:53;;;;;;;0.40;0.40;;;22.30;99.90;;;;;;5048192;28;20204;-76
2021/08/18 09:25:28;;;;;;;0.38;0.38;;;21.90;99.90;;;;;;5046956;28;20346;-75
2021/08/18 09:28:04;;;;;;;0.47;0.47;;;22.20;99.90;;;;;;5047098;28;20169;-77
2021/08/18 09:30:35;;;;;;;3.13;1.05;;;21.90;99.90;;;;;;5046987;28;20252;-75
2021/08/18 09:33:13;;;;;;;0.45;0.40;;;22.20;99.90;;;;;;5048007;28;20330;-74
2021/08/18 09:35:40;;;;;;;7.22;0.90;;;21.90;99.90;;;;;;5046753;28;20176;-74
2021/08/18 09:38:09;;;;;;;0.55;0.55;;;22.00;99.90;;;;;;5046448;28;20180;-75
2021/08/18 09:40:38;;;;;;;1.55;0.55;;;22.40;99.90;;;;;;5046490;28;20179;-77
2021/08/18 09:43:21;;;;;;;0.43;0.43;;;22.70;99.90;;;;;;5046224;28;20279;-76
2021/08/18 09:45:59;;;;;;;0.32;0.32;;;22.70;99.90;;;;;;5048045;28;20175;-78
2021/08/18 09:48:27;;;;;;;0.17;0.17;;;22.80;99.90;;;;;;5046377;28;20546;-75
2021/08/18 09:51:04;;;;;;;0.77;0.77;;;23.20;99.90;;;;;;5047790;28;20169;-76
2021/08/18 09:53:32;;;;;;;2.00;1.13;;;23.80;99.90;;;;;;5046502;28;20199;-75
2021/08/18 09:56:18;;;;;;;0.47;0.47;;;23.70;99.90;;;;;;5046788;28;20177;-75
2021/08/18 09:58:55;;;;;;;0.68;0.68;;;24.00;99.90;;;;;;5046340;28;20267;-75
2021/08/18 10:01:22;;;;;;;1.63;0.50;;;23.90;99.90;;;;;;5047916;28;20183;-75
2021/08/18 10:03:50;;;;;;;0.38;0.38;;;24.10;99.90;;;;;;5046507;28;20207;-76
2021/08/18 10:06:17;;;;;;;5.15;0.68;;;23.90;99.90;;;;;;5047910;28;20153;-76
2021/08/18 10:08:45;;;;;;;0.95;0.90;;;24.40;99.90;;;;;;5046462;28;20267;-75
2021/08/18 10:11:14;;;;;;;1.17;1.10;;;24.20;99.90;;;;;;5058818;28;20180;-75
2021/08/18 10:13:41;;;;;;;1.55;0.90;;;24.30;99.90;;;;;;5067585;28;20184;-75
2021/08/18 10:16:09;;;;;;;0.55;0.55;;;25.60;99.90;;;;;;5067910;28;20157;-75
2021/08/18 10:18:36;;;;;;;0.10;0.10;;;25.30;99.90;;;;;;5066307;28;20268;-76
2021/08/18 10:21:17;;;;;;;0.30;0.30;;;23.30;99.90;;;;;;5067485;28;20168;-75
2021/08/18 10:23:46;;;;;;;0.55;0.55;;;21.00;99.90;;;;;;5063860;28;20196;-74
2021/08/18 10:29:13;;;;;;;0.88;0.60;;;21.20;99.90;;;;;;5056744;28;20176;-75
2021/08/18 10:31:45;;;;;;;0.20;0.20;;;21.50;99.90;;;;;;5056590;28;20305;-75
2021/08/18 10:34:26;;;;;;;0.73;0.73;;;22.90;99.90;;;;;;5055616;28;20283;-75
2021/08/18 10:37:01;;;;;;;0.45;0.45;;;24.10;99.90;;;;;;5053668;28;20176;-75
2021/08/18 10:39:40;;;;;;;4.85;1.25;;;23.60;99.90;;;;;;5056208;28;20183;-75
2021/08/18 10:42:17;;;;;;;0.38;0.38;;;23.00;99.90;;;;;;5057509;28;20172;-75
2021/08/18 10:44:46;;;;;;;0.50;0.50;;;22.80;99.90;;;;;;5057222;28;20184;-77
2021/08/18 10:47:26;;;;;;;0.40;0.40;;;23.40;99.90;;;;;;5054379;28;20176;-75
2021/08/18 10:49:54;;;;;;;0.50;0.40;;;24.20;99.90;;;;;;5057148;28;20224;-75
2021/08/18 10:52:29;;;;;;;0.40;0.40;;;24.70;99.90;;;;;;5059272;28;20278;-75
2021/08/18 10:55:01;;;;;;;1.15;0.90;;;25.40;99.90;;;;;;5060453;28;20157;-76
2021/08/18 10:57:40;;;;;;;0.70;0.47;;;25.50;99.90;;;;;;5057698;28;20165;-75
2021/08/18 11:00:08;;;;;;;0.20;0.10;;;25.60;99.90;;;;;;5060097;28;20180;-77
2021/08/18 11:02:58;;;;;;;1.25;0.68;;;26.30;99.90;;;;;;5055452;28;20215;-78
2021/08/18 11:05:29;;;;;;;0.43;0.43;;;25.30;99.90;;;;;;5059090;28;20174;-76
2021/08/18 11:08:12;;;;;;;0.47;0.47;;;25.10;99.90;;;;;;5059327;28;20165;-76
2021/08/18 11:10:55;;;;;;;0.55;0.55;;;25.30;99.90;;;;;;5059386;28;20203;-78
2021/08/18 11:14:03;;;;;;;0.68;0.68;;;26.20;99.90;;;;;;5059079;28;20213;-77
2021/08/18 11:16:31;;;;;;;1.10;0.77;;;24.90;99.90;;;;;;5056337;28;20244;-76
2021/08/18 11:19:03;;;;;;;0.10;0.10;;;25.70;99.90;;;;;;5058620;28;20172;-78
2021/08/18 11:21:31;;;;;;;0.43;0.43;;;25.80;99.90;;;;;;5059135;28;20176;-76
2021/08/18 11:24:03;;;;;;;0.30;0.28;;;25.80;99.90;;;;;;5057994;28;20279;-78
2021/08/18 11:26:38;;;;;;;0.57;0.45;;;26.60;99.90;;;;;;5056922;28;20173;-76
2021/08/18 11:29:09;;;;;;;0.52;0.52;;;24.80;99.90;;;;;;5058530;28;20194;-76
2021/08/18 11:31:42;;;;;;;0.35;0.35;;;24.20;99.90;;;;;;5058963;28;20192;-77
2021/08/18 11:34:20;;;;;;;1.20;0.73;;;24.20;99.90;;;;;;5058705;28;20294;-77
2021/08/18 11:36:46;;;;;;;0.47;0.20;;;23.30;99.90;;;;;;5058821;28;20232;-75
2021/08/18 11:39:13;;;;;;;0.45;0.30;;;22.30;99.90;;;;;;5068857;28;20164;-76
2021/08/18 11:41:44;;;;;;;0.40;0.40;;;21.90;99.90;;;;;;5070270;28;20278;-76
2021/08/18 11:44:23;;;;;;;0.57;0.45;;;21.90;99.90;;;;;;5068579;28;20227;-77
2021/08/18 11:46:50;;;;;;;0.55;0.55;;;22.00;99.90;;;;;;5051035;28;20176;-76
2021/08/18 11:49:15;;;;;;;0.32;0.32;;;21.90;99.90;;;;;;5049824;28;20282;-78
2021/08/18 11:51:48;;;;;;;0.22;0.22;;;22.10;99.90;;;;;;5049855;28;20184;-77
2021/08/18 11:54:14;;;;;;;1.02;1.00;;;22.10;99.90;;;;;;5049065;28;20286;-77
2021/08/18 11:56:40;;;;;;;0.52;0.52;;;21.70;99.90;;;;;;5048182;28;20189;-77
2021/08/18 11:59:06;;;;;;;0.40;0.38;;;21.70;99.90;;;;;;5049545;28;20250;-77
2021/08/18 12:01:34;;;;;;;0.65;0.65;;;21.80;99.90;;;;;;5047565;28;20232;-77
2021/08/18 12:04:01;;;;;;;0.28;0.25;;;22.20;99.90;;;;;;5049097;28;20157;-77
2021/08/18 12:06:36;;;;;;;0.20;0.20;;;22.70;99.90;;;;;;5049690;28;20224;-76
2021/08/18 12:09:04;;;;;;;0.85;0.77;;;22.70;99.90;;;;;;5049634;28;20671;-77
2021/08/18 12:11:37;;;;;;;0.13;0.13;;;22.00;99.90;;;;;;5060519;28;20264;-79
2021/08/18 12:14:12;;;;;;;0.73;0.73;;;21.80;99.90;;;;;;5069199;28;20569;-77
2021/08/18 12:16:38;;;;;;;1.20;0.85;;;21.80;99.90;;;;;;5061516;28;20192;-78
2021/08/18 12:19:26;;;;;;;0.10;0.10;;;22.70;99.90;;;;;;5068832;28;20152;-78
2021/08/18 12:22:17;;;;;;;0.70;0.70;;;22.80;99.90;;;;;;5061177;28;20207;-79
2021/08/18 12:25:06;;;;;;;0.30;0.30;;;22.50;99.90;;;;;;5067913;28;20180;-78
2021/08/18 12:27:33;;;;;;;2.67;0.63;;;22.50;99.90;;;;;;5068860;28;20184;-77
2021/08/18 12:30:11;;;;;;;2.30;1.08;;;22.70;99.90;;;;;;5059358;28;20246;-78
2021/08/18 12:32:38;;;;;;;0.40;0.40;;;22.60;99.90;;;;;;5046831;28;20204;-76
2021/08/18 12:35:10;;;;;;;0.20;0.20;;;22.70;99.90;;;;;;5054334;28;20223;-75
2021/08/18 12:37:40;;;;;;;0.00;0.00;;;22.80;99.90;;;;;;5061862;28;20314;-74
2021/08/18 12:40:08;;;;;;;0.20;0.20;;;23.20;99.90;;;;;;5069007;28;20155;-76
2021/08/18 12:42:36;;;;;;;1.50;0.80;;;22.90;99.90;;;;;;5068344;28;20160;-76
2021/08/18 12:45:06;;;;;;;0.10;0.10;;;22.60;99.90;;;;;;5067242;28;20206;-75
2021/08/18 12:47:34;;;;;;;0.28;0.28;;;22.50;99.90;;;;;;5067099;28;20223;-74
2021/08/18 12:50:01;;;;;;;0.20;0.20;;;22.50;99.90;;;;;;5066049;28;20328;-77
2021/08/18 12:52:27;;;;;;;0.57;0.40;;;22.50;99.90;;;;;;5047389;28;20262;-75
2021/08/18 12:54:55;;;;;;;0.13;0.13;;;22.30;99.90;;;;;;5048122;28;20157;-77
2021/08/18 12:57:21;;;;;;;0.82;0.32;;;22.00;99.90;;;;;;5048520;28;20207;-75